Time,TemperatureF,DewpointF,PressureIn,WindDirection,WindDirectionDegrees,WindSpeedMPH,WindSpeedGustMPH,Humidity,HourlyPrecipIn,Conditions,Clouds,dailyrainin,SoftwareType,DateUTC
2013-03-15 00:17:00,31.5,30.0,30.23,ENE,72,0.0,3.0,93,0.00,,,0.00,weatherlink.com 1.10,2013-03-15 04:17:00,
2013-03-15 00:35:00,31.0,29.0,30.21,East,93,0.0,1.0,93,0.00,,,0.00,weatherlink.com 1.10,2013-03-15 04:35:00,
2013-03-15 00:52:00,30.7,29.0,30.21,ENE,71,1.0,2.0,93,0.00,,,0.00,weatherlink.com 1.10,2013-03-15 04:52:00,
2013-03-15 01:10:00,30.6,29.0,30.20,ENE,77,1.0,2.0,93,0.00,,,0.00,weatherlink.com 1.10,2013-03-15 05:10:00,
2013-03-15 01:28:00,30.6,29.0,30.20,ENE,68,0.0,2.0,93,0.00,,,0.00,weatherlink.com 1.10,2013-03-15 05:28:00,
2013-03-15 01:45:00,30.6,29.0,30.19,East,83,0.0,3.0,92,0.00,,,0.00,weatherlink.com 1.10,2013-03-15 05:45:00,
2013-03-15 02:03:00,30.3,28.0,30.19,SW,229,0.0,1.0,92,0.00,,,0.00,weatherlink.com 1.10,2013-03-15 06:03:00,
2013-03-15 02:21:00,30.1,28.0,30.18,ESE,107,0.0,1.0,93,0.00,,,0.00,weatherlink.com 1.10,2013-03-15 06:21:00,
2013-03-15 02:39:00,30.0,28.0,30.18,East,84,0.0,0.0,93,0.00,,,0.00,weatherlink.com 1.10,2013-03-15 06:39:00,
2013-03-15 02:56:00,29.8,28.0,30.18,WSW,252,0.0,0.0,93,0.00,,,0.00,weatherlink.com 1.10,2013-03-15 06:56:00,
2013-03-15 03:14:00,29.4,28.0,30.16,ENE,75,0.0,0.0,93,0.00,,,0.00,weatherlink.com 1.10,2013-03-15 07:14:00,
2013-03-15 03:32:00,29.0,27.0,30.15,ENE,76,0.0,0.0,93,0.00,,,0.00,weatherlink.com 1.10,2013-03-15 07:32:00,
2013-03-15 03:50:00,29.0,28.0,30.13,NE,47,0.0,0.0,94,0.00,,,0.00,weatherlink.com 1.10,2013-03-15 07:50:00,
2013-03-15 04:07:00,29.3,28.0,30.11,East,84,1.0,2.0,94,0.00,,,0.00,weatherlink.com 1.10,2013-03-15 08:07:00,
2013-03-15 04:25:00,29.8,28.0,30.10,NE,55,0.0,4.0,94,0.00,,,0.00,weatherlink.com 1.10,2013-03-15 08:25:00,
2013-03-15 04:44:00,30.1,28.0,30.10,WNW,288,0.0,3.0,93,0.00,,,0.00,weatherlink.com 1.10,2013-03-15 08:44:00,
2013-03-15 05:01:00,29.9,28.0,30.09,West,260,0.0,1.0,93,0.00,,,0.00,weatherlink.com 1.10,2013-03-15 09:01:00,
2013-03-15 05:19:00,29.7,28.0,30.10,ENE,72,0.0,1.0,93,0.00,,,0.00,weatherlink.com 1.10,2013-03-15 09:19:00,
2013-03-15 05:37:00,29.5,28.0,30.09,ENE,73,0.0,0.0,93,0.00,,,0.00,weatherlink.com 1.10,2013-03-15 09:37:00,
2013-03-15 05:54:00,29.1,27.0,30.10,ENE,74,0.0,0.0,93,0.00,,,0.00,weatherlink.com 1.10,2013-03-15 09:54:00,
2013-03-15 06:12:00,28.8,27.0,30.10,ENE,75,0.0,1.0,94,0.00,,,0.00,weatherlink.com 1.10,2013-03-15 10:12:00,
2013-03-15 06:31:00,28.4,27.0,30.09,East,91,0.0,1.0,94,0.00,,,0.00,weatherlink.com 1.10,2013-03-15 10:31:00,
2013-03-15 06:48:00,28.2,27.0,30.09,East,91,0.0,0.0,94,0.00,,,0.00,weatherlink.com 1.10,2013-03-15 10:48:00,
2013-03-15 07:24:00,27.4,26.0,30.08,ENE,75,0.0,0.0,94,0.00,,,0.00,weatherlink.com 1.10,2013-03-15 11:24:00,
2013-03-15 07:59:00,27.7,27.0,30.06,SE,131,0.0,2.0,95,0.00,,,0.00,weatherlink.com 1.10,2013-03-15 11:59:00,
2013-03-15 08:17:00,27.9,27.0,30.06,ENE,59,0.0,1.0,95,0.00,,,0.00,weatherlink.com 1.10,2013-03-15 12:17:00,
2013-03-15 08:34:00,28.6,27.0,30.05,East,90,0.0,1.0,95,0.00,,,0.00,weatherlink.com 1.10,2013-03-15 12:34:00,
2013-03-15 08:53:00,29.4,28.0,30.05,WSW,241,0.0,1.0,95,0.00,,,0.00,weatherlink.com 1.10,2013-03-15 12:53:00,
2013-03-15 09:28:00,31.3,30.0,30.05,SSE,149,0.0,1.0,95,0.00,,,0.00,weatherlink.com 1.10,2013-03-15 13:28:00,
2013-03-15 10:02:00,33.5,31.0,30.04,SSW,207,0.0,3.0,91,0.00,,,0.00,weatherlink.com 1.10,2013-03-15 14:02:00,
2013-03-15 10:20:00,35.1,32.0,30.04,WSW,252,0.0,3.0,89,0.00,,,0.00,weatherlink.com 1.10,2013-03-15 14:20:00,
2013-03-15 10:39:00,36.2,32.0,30.04,SW,215,2.0,3.0,85,0.00,,,0.00,weatherlink.com 1.10,2013-03-15 14:39:00,
2013-03-15 10:56:00,38.1,33.0,30.04,SW,221,2.0,4.0,81,0.00,,,0.00,weatherlink.com 1.10,2013-03-15 14:56:00,
2013-03-15 11:14:00,39.7,34.0,30.03,SW,214,2.0,4.0,79,0.00,,,0.00,weatherlink.com 1.10,2013-03-15 15:14:00,
2013-03-15 11:49:00,42.0,35.0,30.04,SW,215,2.0,4.0,75,0.00,,,0.00,weatherlink.com 1.10,2013-03-15 15:49:00,
2013-03-15 12:07:00,42.3,34.0,30.03,SW,223,1.0,4.0,71,0.00,,,0.00,weatherlink.com 1.10,2013-03-15 16:07:00,
2013-03-15 12:25:00,43.0,35.0,30.03,West,274,0.0,2.0,72,0.00,,,0.00,weatherlink.com 1.10,2013-03-15 16:25:00,
2013-03-15 12:42:00,43.9,34.0,30.02,SW,226,1.0,4.0,68,0.00,,,0.00,weatherlink.com 1.10,2013-03-15 16:42:00,
2013-03-15 13:00:00,44.7,36.0,30.01,East,86,1.0,2.0,71,0.00,,,0.00,weatherlink.com 1.10,2013-03-15 17:00:00,
2013-03-15 13:18:00,46.1,36.0,30.01,SW,228,0.0,2.0,67,0.00,,,0.00,weatherlink.com 1.10,2013-03-15 17:18:00,
2013-03-15 13:36:00,46.7,35.0,30.01,SW,225,0.0,5.0,65,0.00,,,0.00,weatherlink.com 1.10,2013-03-15 17:36:00,
2013-03-15 13:53:00,47.2,35.0,30.00,SW,226,3.0,4.0,64,0.00,,,0.00,weatherlink.com 1.10,2013-03-15 17:53:00,
2013-03-15 14:11:00,47.9,36.0,30.00,ENE,68,0.0,5.0,64,0.00,,,0.00,weatherlink.com 1.10,2013-03-15 18:11:00,
2013-03-15 14:29:00,47.8,35.0,30.00,West,276,0.0,4.0,62,0.00,,,0.00,weatherlink.com 1.10,2013-03-15 18:29:00,
2013-03-15 14:46:00,48.4,35.0,29.98,SW,233,3.0,5.0,60,0.00,,,0.00,weatherlink.com 1.10,2013-03-15 18:46:00,
2013-03-15 15:22:00,50.1,37.0,29.97,SW,228,3.0,4.0,60,0.00,,,0.00,weatherlink.com 1.10,2013-03-15 19:22:00,
2013-03-15 15:40:00,50.8,38.0,29.96,East,83,1.0,3.0,61,0.00,,,0.00,weatherlink.com 1.10,2013-03-15 19:40:00,
2013-03-15 15:58:00,51.2,38.0,29.95,ENE,72,1.0,6.0,60,0.00,,,0.00,weatherlink.com 1.10,2013-03-15 19:58:00,
2013-03-15 16:15:00,51.8,38.0,29.94,SW,231,1.0,5.0,59,0.00,,,0.00,weatherlink.com 1.10,2013-03-15 20:15:00,
2013-03-15 16:33:00,51.8,38.0,29.94,SE,130,2.0,5.0,59,0.00,,,0.00,weatherlink.com 1.10,2013-03-15 20:33:00,
2013-03-15 16:51:00,51.9,37.0,29.93,WSW,242,1.0,2.0,58,0.00,,,0.00,weatherlink.com 1.10,2013-03-15 20:51:00,
2013-03-15 17:08:00,51.6,38.0,29.93,SW,233,1.0,3.0,61,0.00,,,0.00,weatherlink.com 1.10,2013-03-15 21:08:00,
2013-03-15 17:26:00,51.4,37.0,29.94,SW,221,0.0,1.0,59,0.00,,,0.00,weatherlink.com 1.10,2013-03-15 21:26:00,
2013-03-15 17:44:00,51.8,38.0,29.93,WSW,239,0.0,2.0,59,0.00,,,0.00,weatherlink.com 1.10,2013-03-15 21:44:00,
2013-03-15 18:01:00,51.7,38.0,29.92,NW,317,0.0,1.0,60,0.00,,,0.00,weatherlink.com 1.10,2013-03-15 22:01:00,
2013-03-15 18:20:00,51.5,38.0,29.91,SW,221,1.0,1.0,61,0.00,,,0.00,weatherlink.com 1.10,2013-03-15 22:20:00,
2013-03-15 18:38:00,51.3,39.0,29.92,SW,224,0.0,2.0,62,0.00,,,0.00,weatherlink.com 1.10,2013-03-15 22:38:00,
2013-03-15 18:55:00,51.1,38.0,29.91,SSW,201,0.0,2.0,61,0.00,,,0.00,weatherlink.com 1.10,2013-03-15 22:55:00,
2013-03-15 19:13:00,50.8,38.0,29.89,East,89,1.0,1.0,62,0.00,,,0.00,weatherlink.com 1.10,2013-03-15 23:13:00,
2013-03-15 19:29:00,50.3,39.0,29.90,WSW,241,0.0,2.0,65,0.00,,,0.00,weatherlink.com 1.10,2013-03-15 23:29:00,
2013-03-15 19:44:00,49.7,38.0,29.89,ENE,72,0.0,1.0,64,0.00,,,0.00,weatherlink.com 1.10,2013-03-15 23:44:00,
2013-03-15 20:14:00,49.0,38.0,29.89,East,82,1.0,2.0,66,0.00,,,0.00,weatherlink.com 1.10,2013-03-16 00:14:00,
2013-03-15 20:31:00,48.0,38.0,29.86,East,86,0.0,3.0,69,0.00,,,0.00,weatherlink.com 1.10,2013-03-16 00:31:00,
2013-03-15 20:49:00,48.6,38.0,29.87,ENE,62,1.0,2.0,68,0.00,,,0.00,weatherlink.com 1.10,2013-03-16 00:49:00,
2013-03-15 21:06:00,49.1,38.0,29.87,ENE,75,0.0,1.0,66,0.00,,,0.00,weatherlink.com 1.10,2013-03-16 01:06:00,
2013-03-15 21:24:00,49.1,38.0,29.86,North,6,0.0,1.0,67,0.00,,,0.00,weatherlink.com 1.10,2013-03-16 01:24:00,
2013-03-15 21:42:00,48.3,39.0,29.83,ENE,77,3.0,3.0,69,0.00,,,0.00,weatherlink.com 1.10,2013-03-16 01:42:00,
2013-03-15 22:00:00,48.7,39.0,29.82,East,98,0.0,2.0,70,0.00,,,0.00,weatherlink.com 1.10,2013-03-16 02:00:00,
2013-03-15 22:17:00,48.9,39.0,29.81,ENE,66,3.0,4.0,70,0.00,,,0.00,weatherlink.com 1.10,2013-03-16 02:17:00,
2013-03-15 22:35:00,49.1,40.0,29.78,ENE,73,2.0,4.0,70,0.00,,,0.00,weatherlink.com 1.10,2013-03-16 02:35:00,
2013-03-15 22:53:00,48.9,39.0,29.80,ENE,70,1.0,5.0,70,0.00,,,0.00,weatherlink.com 1.10,2013-03-16 02:53:00,
2013-03-15 23:29:00,48.2,40.0,29.78,North,359,2.0,3.0,73,0.00,,,0.00,weatherlink.com 1.10,2013-03-16 03:29:00,
2013-03-15 23:46:00,47.3,40.0,29.79,East,88,1.0,4.0,75,0.00,,,0.00,weatherlink.com 1.10,2013-03-16 03:46:00,